Time;durP1;ratioP1;P1;durP2;ratioP2;P2;SDS_P1;SDS_P2;PMS_P1;PMS_P2;Temp;Humidity;BMP_temperature;BMP_pressure;BME280_temperature;BME280_humidity;BME280_pressure;Samples;Min_cycle;Max_cycle;Signal;HPM_P1;HPM_P2
2023/01/01 00:03:37;;;;;;;2.05;1.15;;;;;;;;;;10089586;29;20926;-87
2023/01/01 00:08:43;;;;;;;2.08;1.02;;;;;;;;;;10075054;29;20041;-89
2023/01/01 00:13:49;;;;;;;1.23;1.00;;;;;;;;;;10080769;29;20053;-86
2023/01/01 00:18:52;;;;;;;;;;;;;;;;;;10059569;29;20053;-85
2023/01/01 00:23:57;;;;;;;1.88;1.10;;;;;;;;;;10065624;29;19924;-85
2023/01/01 00:29:01;;;;;;;3.53;1.15;;;;;;;;;;10059362;29;20144;-88
2023/01/01 00:34:04;;;;;;;2.30;0.98;;;;;;;;;;10092255;29;20045;-87
2023/01/01 00:39:09;;;;;;;1.35;1.13;;;;;;;;;;10102412;29;20147;-87
2023/01/01 00:44:13;;;;;;;1.30;1.10;;;;;;;;;;10095869;29;20504;-88
2023/01/01 00:49:16;;;;;;;2.80;1.48;;;;;;;;;;10071556;29;20105;-86
2023/01/01 00:54:21;;;;;;;3.47;1.40;;;;;;;;;;10063055;29;20583;-86
2023/01/01 00:59:24;;;;;;;2.50;1.30;;;;;;;;;;10070602;29;20521;-85
2023/01/01 01:04:30;;;;;;;2.35;1.60;;;;;;;;;;10055056;29;20252;-89
2023/01/01 01:09:35;;;;;;;2.63;2.03;;;;;;;;;;10086358;29;20036;-86
2023/01/01 01:14:39;;;;;;;4.47;2.65;;;;;;;;;;10064026;29;20053;-85
2023/01/01 01:19:42;;;;;;;3.85;2.10;;;;;;;;;;10096753;29;20140;-86
2023/01/01 01:24:47;;;;;;;4.55;2.90;;;;;;;;;;10096344;29;20053;-85
2023/01/01 01:29:50;;;;;;;8.07;4.28;;;;;;;;;;10062319;29;20055;-85
2023/01/01 02:02:53;;;;;;;12.68;6.00;;;;;;;;;;10042476;29;20050;-85
2023/01/01 02:07:57;;;;;;;9.70;5.78;;;;;;;;;;10041932;29;20045;-86
2023/01/01 02:13:01;;;;;;;9.88;5.35;;;;;;;;;;10028341;29;20087;-86
2023/01/01 02:18:10;;;;;;;7.88;4.70;;;;;;;;;;10036563;29;20105;-85
2023/01/01 02:23:43;;;;;;;5.53;4.05;;;;;;;;;;10022621;29;20054;-86
2023/01/01 02:28:58;;;;;;;7.22;4.57;;;;;;;;;;10025319;29;20508;-85
2023/01/01 02:34:05;;;;;;;8.03;4.83;;;;;;;;;;10038642;29;20124;-85
2023/01/01 02:39:10;;;;;;;6.30;3.75;;;;;;;;;;10035814;29;20462;-85
2023/01/01 02:44:16;;;;;;;5.63;4.07;;;;;;;;;;10038833;29;20056;-85
2023/01/01 02:49:20;;;;;;;;;;;;;;;;;;10037036;29;20046;-85
2023/01/01 02:54:33;;;;;;;6.10;3.83;;;;;;;;;;10032344;29;20371;-85
2023/01/01 03:05:17;;;;;;;;;;;;;;;;;;10027534;29;20137;-85
2023/01/01 03:10:27;;;;;;;6.22;3.33;;;;;;;;;;10051644;29;20166;-85
2023/01/01 03:15:39;;;;;;;3.85;2.75;;;;;;;;;;10035633;29;20056;-85
2023/01/01 03:20:48;;;;;;;5.30;3.25;;;;;;;;;;10015904;29;20369;-85
2023/01/01 03:25:54;;;;;;;3.90;2.67;;;;;;;;;;10009506;29;20472;-85
2023/01/01 03:31:01;;;;;;;5.32;2.60;;;;;;;;;;10027030;29;20045;-86
2023/01/01 03:36:07;;;;;;;3.63;2.20;;;;;;;;;;10031363;29;20582;-84
2023/01/01 03:41:15;;;;;;;6.85;2.30;;;;;;;;;;10019321;29;20145;-85
2023/01/01 03:46:24;;;;;;;3.88;1.92;;;;;;;;;;10034832;29;20045;-86
2023/01/01 03:51:46;;;;;;;3.33;2.00;;;;;;;;;;10048567;29;20061;-85
2023/01/01 03:56:55;;;;;;;6.70;2.30;;;;;;;;;;10039780;29;20053;-86
2023/01/01 04:02:04;;;;;;;4.13;2.00;;;;;;;;;;10014938;29;20070;-85
2023/01/01 04:07:08;;;;;;;2.53;1.55;;;;;;;;;;10019247;29;20109;-85
2023/01/01 04:12:18;;;;;;;4.20;1.90;;;;;;;;;;10037871;29;20103;-85
2023/01/01 04:17:23;;;;;;;5.18;2.17;;;;;;;;;;10038081;29;20110;-85
2023/01/01 04:22:26;;;;;;;4.57;1.70;;;;;;;;;;10026631;29;20056;-85
2023/01/01 04:27:30;;;;;;;3.60;1.25;;;;;;;;;;10029523;29;20046;-84
2023/01/01 04:32:35;;;;;;;1.58;1.25;;;;;;;;;;10031233;29;20519;-86
2023/01/01 04:37:40;;;;;;;2.83;1.20;;;;;;;;;;10008869;29;20046;-85
2023/01/01 04:42:43;;;;;;;2.47;1.38;;;;;;;;;;10000232;29;20046;-86
2023/01/01 04:47:48;;;;;;;3.25;1.48;;;;;;;;;;10046271;29;20105;-86
2023/01/01 04:52:52;;;;;;;3.33;1.42;;;;;;;;;;10037164;29;20604;-86
2023/01/01 04:57:57;;;;;;;3.92;1.70;;;;;;;;;;10040504;29;20046;-86
2023/01/01 05:03:04;;;;;;;2.80;1.60;;;;;;;;;;10014133;29;20068;-85
2023/01/01 05:08:08;;;;;;;2.05;1.00;;;;;;;;;;10021376;29;20052;-85
2023/01/01 05:13:12;;;;;;;2.92;1.58;;;;;;;;;;10031727;29;20076;-85
2023/01/01 05:18:16;;;;;;;3.97;1.30;;;;;;;;;;10036485;29;20046;-85
2023/01/01 05:23:20;;;;;;;3.47;1.15;;;;;;;;;;10021133;29;20069;-84
2023/01/01 05:28:24;;;;;;;2.55;1.40;;;;;;;;;;10022710;29;20106;-85
2023/01/01 05:33:29;;;;;;;3.03;1.58;;;;;;;;;;10033172;29;20101;-85
2023/01/01 05:38:33;;;;;;;1.77;1.15;;;;;;;;;;10022518;29;20461;-85
2023/01/01 05:43:37;;;;;;;3.53;1.40;;;;;;;;;;10005335;29;20046;-84
2023/01/01 05:48:42;;;;;;;2.08;1.27;;;;;;;;;;10060369;29;20065;-85
2023/01/01 05:53:46;;;;;;;2.95;1.50;;;;;;;;;;10056398;29;20088;-85
2023/01/01 05:58:49;;;;;;;2.35;1.08;;;;;;;;;;10042783;29;20077;-85
2023/01/01 06:03:56;;;;;;;3.40;1.48;;;;;;;;;;10023204;29;20054;-84
2023/01/01 06:09:01;;;;;;;1.85;1.13;;;;;;;;;;10054443;29;20037;-85
2023/01/01 06:14:05;;;;;;;1.98;1.20;;;;;;;;;;10043589;29;20049;-84
2023/01/01 06:19:10;;;;;;;2.80;1.17;;;;;;;;;;10060490;29;20049;-85
2023/01/01 06:24:14;;;;;;;1.92;1.13;;;;;;;;;;10044316;29;20057;-85
2023/01/01 06:29:17;;;;;;;3.22;1.40;;;;;;;;;;10031975;29;20128;-86
2023/01/01 06:34:22;;;;;;;1.85;1.00;;;;;;;;;;10041837;29;20133;-85
2023/01/01 06:39:26;;;;;;;4.32;1.27;;;;;;;;;;10042110;29;20097;-84
2023/01/01 06:44:30;;;;;;;3.10;1.40;;;;;;;;;;10033446;29;20045;-86
2023/01/01 06:49:35;;;;;;;3.63;1.30;;;;;;;;;;10034664;29;20526;-85
2023/01/01 06:54:38;;;;;;;5.20;1.40;;;;;;;;;;10058734;29;20393;-85
2023/01/01 06:59:42;;;;;;;1.80;1.10;;;;;;;;;;10020210;29;20050;-86
2023/01/01 07:04:47;;;;;;;3.35;1.30;;;;;;;;;;10054263;29;20053;-85
2023/01/01 07:09:51;;;;;;;2.28;1.20;;;;;;;;;;10021228;29;20057;-85
2023/01/01 07:14:55;;;;;;;4.43;1.27;;;;;;;;;;10003981;29;20054;-85
2023/01/01 07:20:03;;;;;;;1.88;0.80;;;;;;;;;;10013170;29;20063;-85
2023/01/01 07:25:09;;;;;;;3.70;1.27;;;;;;;;;;10031550;29;20580;-85
2023/01/01 07:30:15;;;;;;;3.90;1.00;;;;;;;;;;10031062;29;20567;-86
2023/01/01 07:35:21;;;;;;;2.28;0.93;;;;;;;;;;10036707;29;20073;-85
2023/01/01 07:40:24;;;;;;;1.00;0.70;;;;;;;;;;10018583;29;20046;-85
2023/01/01 07:45:28;;;;;;;0.82;0.70;;;;;;;;;;10017437;29;20148;-85
2023/01/01 07:50:36;;;;;;;1.10;0.60;;;;;;;;;;10007957;29;20107;-86
2023/01/01 07:55:39;;;;;;;4.68;1.17;;;;;;;;;;10034647;29;20060;-86
2023/01/01 08:00:47;;;;;;;3.88;1.55;;;;;;;;;;10039038;29;20178;-86
2023/01/01 08:05:52;;;;;;;2.85;1.23;;;;;;;;;;9980691;29;20054;-85
2023/01/01 08:11:00;;;;;;;1.48;1.08;;;;;;;;;;10033489;29;20045;-84
2023/01/01 08:16:06;;;;;;;3.92;1.20;;;;;;;;;;10038435;29;20045;-85
2023/01/01 08:21:11;;;;;;;2.78;1.30;;;;;;;;;;10039924;29;20052;-86
2023/01/01 08:26:16;;;;;;;3.75;1.13;;;;;;;;;;10040747;29;20518;-86
2023/01/01 08:31:21;;;;;;;;;;;;;;;;;;10040496;29;20049;-86
2023/01/01 08:36:26;;;;;;;2.42;1.35;;;;;;;;;;10031150;29;20360;-84
2023/01/01 08:41:30;;;;;;;2.80;1.45;;;;;;;;;;10032298;29;20050;-86
2023/01/01 08:46:34;;;;;;;2.67;1.20;;;;;;;;;;10040855;29;20132;-86
2023/01/01 08:51:44;;;;;;;3.03;1.38;;;;;;;;;;10034671;29;20041;-85
2023/01/01 08:56:47;;;;;;;4.13;1.60;;;;;;;;;;10054433;29;20140;-85
2023/01/01 09:01:53;;;;;;;3.58;1.35;;;;;;;;;;10024024;29;20515;-86
2023/01/01 09:06:58;;;;;;;4.57;1.70;;;;;;;;;;10018305;29;20087;-85
2023/01/01 09:12:05;;;;;;;2.72;1.15;;;;;;;;;;10042407;29;20136;-85
2023/01/01 09:17:08;;;;;;;3.15;1.75;;;;;;;;;;10027769;29;20041;-86
2023/01/01 09:22:15;;;;;;;2.53;1.10;;;;;;;;;;10056764;29;20053;-85
2023/01/01 09:27:20;;;;;;;3.13;0.90;;;;;;;;;;10033365;29;20038;-86
2023/01/01 09:32:24;;;;;;;2.08;1.05;;;;;;;;;;10034647;29;20038;-85
2023/01/01 09:37:30;;;;;;;2.03;1.00;;;;;;;;;;10013626;29;20105;-85
2023/01/01 09:42:40;;;;;;;2.83;1.05;;;;;;;;;;10021538;29;20105;-85
2023/01/01 09:47:50;;;;;;;2.97;0.90;;;;;;;;;;10035343;29;20049;-85
2023/01/01 09:52:57;;;;;;;3.30;0.95;;;;;;;;;;10028257;29;20042;-85
2023/01/01 09:58:01;;;;;;;1.65;0.90;;;;;;;;;;10038090;29;20050;-85
2023/01/01 10:03:20;;;;;;;2.67;1.20;;;;;;;;;;10060056;29;20049;-85
2023/01/01 10:08:49;;;;;;;1.38;1.00;;;;;;;;;;10055241;29;20079;-85
2023/01/01 10:13:53;;;;;;;2.90;1.05;;;;;;;;;;10055255;29;20080;-86
2023/01/01 10:19:02;;;;;;;2.72;0.80;;;;;;;;;;10026596;29;20061;-85
2023/01/01 10:24:21;;;;;;;1.98;0.80;;;;;;;;;;10038915;29;20070;-85
2023/01/01 10:29:34;;;;;;;2.78;0.90;;;;;;;;;;10027537;29;20334;-85
2023/01/01 10:34:37;;;;;;;2.25;1.02;;;;;;;;;;10036703;29;20283;-86
2023/01/01 10:39:44;;;;;;;1.30;0.60;;;;;;;;;;10041780;29;20046;-85
2023/01/01 10:44:51;;;;;;;2.05;1.15;;;;;;;;;;10058396;29;20106;-85
2023/01/01 10:49:57;;;;;;;4.05;1.02;;;;;;;;;;10038923;29;20110;-85
2023/01/01 10:55:02;;;;;;;3.08;0.90;;;;;;;;;;10028937;29;20088;-86
2023/01/01 11:11:21;;;;;;;1.38;0.60;;;;;;;;;;10211412;23;20062;-79
2023/01/01 11:35:18;;;;;;;2.35;1.10;;;;;;;;;;10130810;23;20410;-90
2023/01/01 11:40:24;;;;;;;1.75;1.05;;;;;;;;;;10090769;29;20110;-85
2023/01/01 11:45:33;;;;;;;4.55;1.30;;;;;;;;;;10047988;29;20044;-83
2023/01/01 11:50:49;;;;;;;2.10;0.90;;;;;;;;;;10046445;29;20049;-85
2023/01/01 11:56:04;;;;;;;2.20;1.02;;;;;;;;;;10045290;29;20549;-84
2023/01/01 12:01:16;;;;;;;2.35;1.30;;;;;;;;;;10051778;29;20202;-85
2023/01/01 12:06:27;;;;;;;3.08;1.17;;;;;;;;;;10087390;29;20136;-85
2023/01/01 12:11:38;;;;;;;2.58;1.00;;;;;;;;;;10053200;29;20597;-85
2023/01/01 12:16:50;;;;;;;4.72;2.13;;;;;;;;;;10065283;29;20049;-86
2023/01/01 12:21:59;;;;;;;2.95;1.17;;;;;;;;;;10087634;29;20057;-86
2023/01/01 12:27:18;;;;;;;3.30;1.42;;;;;;;;;;10070309;29;20249;-86
2023/01/01 12:32:30;;;;;;;4.30;1.25;;;;;;;;;;10087600;29;20052;-86
2023/01/01 12:37:50;;;;;;;3.70;1.80;;;;;;;;;;10081713;29;20044;-86
2023/01/01 12:43:01;;;;;;;2.90;0.95;;;;;;;;;;10056838;29;20083;-86
2023/01/01 12:48:25;;;;;;;4.90;1.40;;;;;;;;;;10050039;29;20053;-86
2023/01/01 12:53:38;;;;;;;1.67;1.00;;;;;;;;;;10046549;29;20045;-86
2023/01/01 12:58:44;;;;;;;1.92;1.00;;;;;;;;;;10059597;29;20049;-86
2023/01/01 13:03:51;;;;;;;3.47;1.20;;;;;;;;;;10090976;29;20143;-88
2023/01/01 13:09:00;;;;;;;4.05;1.65;;;;;;;;;;10060823;29;20124;-87
2023/01/01 13:14:04;;;;;;;2.25;1.10;;;;;;;;;;10073021;29;20397;-86
2023/01/01 13:19:26;;;;;;;1.30;0.68;;;;;;;;;;10048672;29;20056;-86
2023/01/01 13:24:34;;;;;;;3.17;0.82;;;;;;;;;;10060873;29;20113;-87
2023/01/01 13:29:49;;;;;;;2.53;0.80;;;;;;;;;;10091169;29;20096;-86
2023/01/01 13:35:04;;;;;;;2.83;1.20;;;;;;;;;;10079207;29;20310;-87
2023/01/01 13:40:32;;;;;;;3.83;1.27;;;;;;;;;;10048858;29;20143;-85
2023/01/01 13:45:40;;;;;;;1.75;0.80;;;;;;;;;;10054545;29;20044;-85
2023/01/01 13:51:20;;;;;;;2.28;1.27;;;;;;;;;;10042628;29;20052;-86
2023/01/01 13:56:45;;;;;;;3.80;1.08;;;;;;;;;;10056441;29;20049;-85
2023/01/01 14:01:54;;;;;;;2.13;0.90;;;;;;;;;;10065010;29;20044;-85
2023/01/01 14:07:02;;;;;;;3.53;1.08;;;;;;;;;;10053418;29;20759;-87
2023/01/01 14:12:20;;;;;;;2.78;1.00;;;;;;;;;;10069828;29;20036;-88
2023/01/01 14:17:24;;;;;;;2.50;0.60;;;;;;;;;;10073802;29;20561;-88
2023/01/01 14:22:27;;;;;;;2.28;0.80;;;;;;;;;;10081300;29;20047;-91
2023/01/01 14:27:33;;;;;;;0.95;0.65;;;;;;;;;;10118792;29;20053;-87
2023/01/01 14:32:36;;;;;;;1.58;0.65;;;;;;;;;;10078533;29;20120;-89
2023/01/01 14:37:40;;;;;;;2.60;0.70;;;;;;;;;;10066117;29;20664;-85
2023/01/01 14:42:47;;;;;;;2.22;0.80;;;;;;;;;;10075996;29;20097;-86
2023/01/01 14:47:54;;;;;;;3.60;0.98;;;;;;;;;;10105612;29;20622;-93
2023/01/01 14:53:04;;;;;;;2.95;0.70;;;;;;;;;;10068783;29;20523;-85
2023/01/01 14:58:13;;;;;;;1.70;0.90;;;;;;;;;;10060191;29;20154;-85
2023/01/01 15:03:19;;;;;;;1.73;0.60;;;;;;;;;;10048256;29;20041;-85
2023/01/01 15:08:24;;;;;;;1.08;0.68;;;;;;;;;;10046247;29;20069;-87
2023/01/01 15:13:29;;;;;;;1.95;0.80;;;;;;;;;;10075714;29;20128;-88
2023/01/01 15:18:37;;;;;;;2.50;0.70;;;;;;;;;;10076211;29;20061;-90
2023/01/01 15:23:51;;;;;;;2.40;0.73;;;;;;;;;;10075532;29;20047;-85
2023/01/01 15:28:57;;;;;;;1.50;0.80;;;;;;;;;;10077469;29;20060;-88
2023/01/01 15:34:01;;;;;;;2.35;0.75;;;;;;;;;;10066033;29;20048;-85
2023/01/01 15:39:10;;;;;;;3.15;1.13;;;;;;;;;;10050320;29;20508;-85
2023/01/01 15:44:27;;;;;;;3.03;0.90;;;;;;;;;;10058401;29;20544;-86
2023/01/01 15:49:32;;;;;;;2.92;0.88;;;;;;;;;;10054109;29;20547;-86
2023/01/01 15:54:39;;;;;;;2.47;1.00;;;;;;;;;;10072877;29;20041;-92
2023/01/01 15:59:44;;;;;;;2.80;1.00;;;;;;;;;;10100796;29;20079;-88
2023/01/01 16:04:50;;;;;;;2.40;1.13;;;;;;;;;;10089831;29;20056;-87
2023/01/01 16:09:54;;;;;;;6.50;1.20;;;;;;;;;;10091575;29;20517;-87
2023/01/01 16:15:01;;;;;;;;;;;;;;;;;;10068015;29;20087;-85
2023/01/01 16:20:06;;;;;;;2.43;1.13;;;;;;;;;;10057871;29;19963;-84
2023/01/01 16:25:15;;;;;;;3.47;1.35;;;;;;;;;;10041263;29;20406;-85
2023/01/01 16:30:25;;;;;;;5.75;2.00;;;;;;;;;;10041326;29;20529;-85
2023/01/01 16:35:29;;;;;;;7.40;2.22;;;;;;;;;;10039831;29;20147;-86
2023/01/01 16:40:33;;;;;;;2.90;1.58;;;;;;;;;;10052358;29;20131;-85
2023/01/01 16:45:41;;;;;;;3.03;1.60;;;;;;;;;;10071718;29;20041;-85
2023/01/01 16:50:45;;;;;;;3.20;1.20;;;;;;;;;;10050932;29;20045;-87
2023/01/01 16:55:51;;;;;;;3.85;1.42;;;;;;;;;;10102211;29;20047;-88
2023/01/01 17:01:01;;;;;;;4.90;1.40;;;;;;;;;;10070764;23;20576;-87
2023/01/01 17:06:05;;;;;;;4.97;1.33;;;;;;;;;;10014306;29;20041;-86
2023/01/01 17:11:12;;;;;;;6.60;1.40;;;;;;;;;;9978401;29;20416;-82
2023/01/01 17:16:18;;;;;;;2.17;1.10;;;;;;;;;;9977759;29;20054;-87
2023/01/01 17:21:27;;;;;;;2.10;0.95;;;;;;;;;;9965612;29;20102;-87
2023/01/01 17:26:30;;;;;;;3.55;1.40;;;;;;;;;;9953597;29;20370;-86
2023/01/01 17:31:35;;;;;;;5.78;2.03;;;;;;;;;;9990764;29;20058;-87
2023/01/01 17:36:39;;;;;;;7.60;3.25;;;;;;;;;;9978552;29;20062;-87
2023/01/01 17:41:44;;;;;;;5.20;2.60;;;;;;;;;;9931680;29;20042;-87
2023/01/01 17:46:49;;;;;;;5.10;2.20;;;;;;;;;;9949893;29;20347;-87
2023/01/01 17:51:53;;;;;;;4.57;1.90;;;;;;;;;;9954643;29;20054;-84
2023/01/01 17:57:02;;;;;;;3.30;1.40;;;;;;;;;;9987203;29;20077;-86
2023/01/01 18:02:11;;;;;;;4.13;1.70;;;;;;;;;;9957516;29;20043;-87
2023/01/01 18:07:14;;;;;;;5.00;1.85;;;;;;;;;;9973770;29;20586;-87
2023/01/01 18:12:19;;;;;;;2.70;1.30;;;;;;;;;;9987465;29;20128;-88
2023/01/01 18:17:24;;;;;;;3.22;1.67;;;;;;;;;;9983450;29;20145;-89
2023/01/01 18:22:27;;;;;;;5.13;1.60;;;;;;;;;;9981769;29;20099;-87
2023/01/01 18:27:31;;;;;;;2.30;1.10;;;;;;;;;;9945005;29;20721;-88
2023/01/01 18:32:36;;;;;;;2.88;1.52;;;;;;;;;;9950458;29;20057;-87
2023/01/01 18:37:39;;;;;;;2.90;1.30;;;;;;;;;;9970017;29;20499;-85
2023/01/01 18:42:50;;;;;;;1.35;0.80;;;;;;;;;;9993971;29;20050;-88
2023/01/01 18:47:55;;;;;;;2.67;1.27;;;;;;;;;;10018731;29;20064;-89
2023/01/01 18:53:06;;;;;;;2.17;0.73;;;;;;;;;;10003368;29;20083;-86
2023/01/01 18:58:16;;;;;;;2.38;0.93;;;;;;;;;;9978154;29;20103;-84
2023/01/01 19:03:26;;;;;;;3.60;1.40;;;;;;;;;;9968909;29;20047;-86
2023/01/01 19:08:30;;;;;;;2.33;1.20;;;;;;;;;;9992520;29;20141;-87
2023/01/01 19:13:35;;;;;;;4.50;1.63;;;;;;;;;;9961208;29;20055;-86
2023/01/01 19:18:43;;;;;;;3.53;1.80;;;;;;;;;;9966595;29;20052;-88
2023/01/01 19:23:51;;;;;;;5.63;2.10;;;;;;;;;;9983740;29;20162;-86
2023/01/01 19:28:56;;;;;;;6.95;2.38;;;;;;;;;;9999092;29;20058;-87
2023/01/01 19:34:01;;;;;;;2.85;1.60;;;;;;;;;;9963960;29;20122;-88
2023/01/01 19:39:05;;;;;;;6.53;1.70;;;;;;;;;;9969510;29;20408;-87
2023/01/01 19:44:08;;;;;;;3.20;1.58;;;;;;;;;;9963074;29;20059;-86
2023/01/01 19:49:15;;;;;;;5.57;1.10;;;;;;;;;;9954628;29;20089;-86
2023/01/01 19:54:18;;;;;;;1.95;1.00;;;;;;;;;;9957477;29;20068;-87
2023/01/01 19:59:22;;;;;;;4.20;1.45;;;;;;;;;;9972248;29;20062;-87
2023/01/01 20:04:28;;;;;;;3.67;1.10;;;;;;;;;;9951511;29;20179;-87
2023/01/01 20:09:33;;;;;;;3.53;1.05;;;;;;;;;;9975679;29;20038;-87
2023/01/01 20:14:37;;;;;;;3.17;1.17;;;;;;;;;;9965983;29;20034;-86
2023/01/01 20:19:42;;;;;;;2.25;1.17;;;;;;;;;;9927372;29;20764;-85
2023/01/01 20:24:45;;;;;;;2.08;1.30;;;;;;;;;;9952102;29;20068;-86
2023/01/01 20:29:49;;;;;;;2.75;1.30;;;;;;;;;;9942269;29;20146;-87
2023/01/01 20:34:54;;;;;;;1.98;0.95;;;;;;;;;;9965255;29;20054;-87
2023/01/01 20:39:57;;;;;;;3.88;1.20;;;;;;;;;;9965813;29;20138;-84
2023/01/01 20:45:01;;;;;;;1.90;0.82;;;;;;;;;;9960232;29;20046;-90
2023/01/01 20:50:09;;;;;;;3.55;0.70;;;;;;;;;;9977987;29;20057;-87
2023/01/01 20:55:16;;;;;;;2.08;0.85;;;;;;;;;;9963350;29;20046;-86
2023/01/01 21:00:22;;;;;;;2.78;1.33;;;;;;;;;;9950029;29;20046;-90
2023/01/01 21:05:27;;;;;;;5.25;1.05;;;;;;;;;;9952186;29;20142;-88
2023/01/01 21:10:31;;;;;;;2.22;1.10;;;;;;;;;;9951300;29;20210;-87
2023/01/01 21:15:35;;;;;;;3.58;1.38;;;;;;;;;;9962955;29;20039;-87
2023/01/01 21:20:45;;;;;;;2.25;1.38;;;;;;;;;;9962545;29;20046;-86
2023/01/01 21:25:49;;;;;;;2.38;0.90;;;;;;;;;;9961258;29;20057;-86
2023/01/01 21:30:56;;;;;;;3.83;0.90;;;;;;;;;;9950333;29;20074;-90
2023/01/01 21:36:05;;;;;;;3.45;0.95;;;;;;;;;;9961334;29;20044;-87
2023/01/01 21:41:18;;;;;;;3.47;1.30;;;;;;;;;;9974738;29;20782;-89
2023/01/01 21:46:34;;;;;;;5.15;1.67;;;;;;;;;;9980915;29;20095;-89
2023/01/01 21:51:44;;;;;;;2.35;0.98;;;;;;;;;;9982810;29;20060;-88
2023/01/01 21:56:55;;;;;;;2.58;1.15;;;;;;;;;;9971217;29;20077;-87
2023/01/01 22:02:29;;;;;;;5.20;1.65;;;;;;;;;;9967170;29;20149;-89
2023/01/01 22:07:37;;;;;;;3.40;0.70;;;;;;;;;;10000046;29;20066;-87
2023/01/01 22:13:01;;;;;;;3.17;0.90;;;;;;;;;;9984200;29;20054;-88
2023/01/01 22:18:22;;;;;;;2.92;0.95;;;;;;;;;;9958792;29;20053;-88
2023/01/01 22:23:37;;;;;;;3.65;1.20;;;;;;;;;;9984838;29;20060;-88
2023/01/01 22:28:43;;;;;;;2.60;1.15;;;;;;;;;;9936569;29;20512;-87
2023/01/01 22:33:47;;;;;;;;;;;;;;;;;;9965887;29;20141;-89
2023/01/01 22:38:55;;;;;;;3.05;1.20;;;;;;;;;;9974055;29;19924;-87
2023/01/01 22:44:02;;;;;;;4.40;1.63;;;;;;;;;;9982719;29;20043;-88
2023/01/01 22:49:17;;;;;;;3.63;1.08;;;;;;;;;;9969891;29;20050;-90
2023/01/01 22:54:22;;;;;;;2.37;1.03;;;;;;;;;;9941580;29;20062;-90
